Time;durP1;ratioP1;P1;durP2;ratioP2;P2;SDS_P1;SDS_P2;PMS_P1;PMS_P2;Temp;Humidity;BMP_temperature;BMP_pressure;BME280_temperature;BME280_humidity;BME280_pressure;Samples;Min_cycle;Max_cycle;Signal;HPM_P1;HPM_P2
2022/12/23 00:02:35;;;;;;;7.83;4.23;;;;;;;6.84;93.94;100208.63;31331334;28;20052;-75
2022/12/23 00:17:41;;;;;;;6.20;3.80;;;;;;;6.82;93.43;100214.41;31346012;28;20061;-74
2022/12/23 00:32:43;;;;;;;7.63;3.65;;;;;;;6.72;93.72;100190.91;31330680;28;20049;-74
2022/12/23 01:18:33;;;;;;;8.47;3.83;;;;;;;6.94;94.75;100147.66;31345409;28;20061;-74
2022/12/23 01:33:35;;;;;;;9.87;5.23;;;;;;;7.09;95.57;100135.63;31337298;28;20060;-72
2022/12/23 01:48:40;;;;;;;8.37;5.10;;;;;;;7.14;98.93;100095.50;31302835;28;20049;-74
2022/12/23 02:03:44;;;;;;;10.20;5.33;;;;;;;7.28;98.60;100075.78;31342518;28;20091;-74
2022/12/23 02:18:55;;;;;;;11.97;6.53;;;;;;;7.21;100.00;100083.91;31341112;28;20122;-73
2022/12/23 02:34:09;;;;;;;15.83;6.73;;;;;;;7.55;100.00;100059.75;31315872;28;20118;-73
2022/12/23 02:49:17;;;;;;;14.73;7.07;;;;;;;7.61;99.37;100068.94;31341489;28;20053;-74
2022/12/23 03:04:19;;;;;;;18.17;8.37;;;;;;;7.45;99.97;100052.50;31356121;28;20053;-73
2022/12/23 03:19:32;;;;;;;17.20;8.40;;;;;;;7.40;100.00;100050.97;31355634;28;20442;-73
2022/12/23 03:34:39;;;;;;;15.87;6.97;;;;;;;7.56;100.00;100057.81;31351682;28;20054;-75
2022/12/23 03:49:57;;;;;;;15.97;7.40;;;;;;;7.74;100.00;100048.38;31365212;28;20121;-73
2022/12/23 04:05:39;;;;;;;16.47;7.47;;;;;;;7.72;100.00;100061.53;31358442;28;20053;-72
2022/12/23 07:41:03;;;;;;;15.23;7.50;;;;;;;8.21;93.35;99937.81;31937669;27;20417;-73
2022/12/23 07:56:05;;;;;;;13.20;6.70;;;;;;;8.26;87.30;100015.81;31784666;27;20056;-75
2022/12/23 08:11:09;;;;;;;9.93;5.80;;;;;;;8.84;83.36;100051.81;31798852;27;20052;-73
2022/12/23 08:26:16;;;;;;;11.37;5.40;;;;;;;9.01;80.81;100088.72;31801436;27;20044;-74
2022/12/23 08:41:22;;;;;;;10.40;5.67;;;;;;;8.39;83.59;100068.22;31716041;27;20056;-75
2022/12/23 08:56:26;;;;;;;17.27;8.23;;;;;;;9.02;83.00;100094.88;31708405;27;20051;-74
2022/12/23 09:11:29;;;;;;;8.23;4.90;;;;;;;8.49;85.95;100053.06;31729957;27;20437;-83
2022/12/23 09:26:31;;;;;;;15.90;7.63;;;;;;;8.75;86.66;100040.72;31744414;27;20412;-86
2022/12/23 09:41:51;;;;;;;18.87;8.23;;;;;;;8.86;87.46;100017.00;31718406;27;20132;-74
2022/12/23 09:57:17;;;;;;;19.37;8.07;;;;;;;8.96;86.66;99997.13;31713889;27;20054;-78
2022/12/23 10:12:33;;;;;;;21.93;9.70;;;;;;;8.89;88.26;99983.69;31703095;27;20740;-75
2022/12/23 10:27:42;;;;;;;22.07;9.77;;;;;;;9.20;86.46;99987.88;31704896;27;20508;-75
2022/12/23 10:43:08;;;;;;;22.30;9.90;;;;;;;8.79;89.11;99955.59;31706362;27;20473;-83
2022/12/23 10:58:15;;;;;;;23.00;10.50;;;;;;;9.04;88.77;99949.03;31691984;28;20128;-82
2022/12/23 11:13:24;;;;;;;23.33;10.43;;;;;;;9.14;87.66;99973.25;31716746;27;20457;-83
2022/12/23 11:28:28;;;;;;;28.77;11.67;;;;;;;9.05;88.54;99947.84;31712645;28;20455;-75
2022/12/23 11:43:33;;;;;;;20.13;9.23;;;;;;;9.44;87.15;99952.66;31701991;28;20043;-75
2022/12/23 11:58:52;;;;;;;20.67;9.63;;;;;;;9.52;86.85;99962.16;31661614;28;20047;-74
2022/12/23 12:14:02;;;;;;;21.10;10.50;;;;;;;9.53;87.12;99969.88;31664309;27;20507;-74
2022/12/23 12:29:16;;;;;;;19.97;9.83;;;;;;;9.39;87.89;99972.84;31832837;27;20066;-86
2022/12/23 12:44:45;;;;;;;26.77;10.07;;;;;;;9.40;89.19;99962.78;31737661;27;20082;-86
2022/12/23 12:59:55;;;;;;;20.10;9.67;;;;;;;9.38;88.87;99959.72;31722009;27;20051;-74
2022/12/23 16:31:08;;;;;;;20.20;8.80;;;;;;;8.60;100.00;99728.22;31410134;27;20389;-72
2022/12/23 17:01:48;;;;;;;22.37;10.17;;;;;;;8.78;96.70;99815.25;31377495;28;20086;-86
2022/12/23 17:16:50;;;;;;;24.27;10.37;;;;;;;8.50;96.82;99817.25;31307919;28;20049;-74
2022/12/23 17:31:52;;;;;;;29.37;10.53;;;;;;;8.13;98.42;99812.00;31200032;28;20049;-75
2022/12/23 17:46:57;;;;;;;31.50;10.80;;;;;;;8.19;97.69;99808.44;31198006;28;20064;-75
2022/12/23 18:01:58;;;;;;;29.87;11.03;;;;;;;7.97;99.04;99811.84;31227241;28;20506;-71
2022/12/23 18:17:01;;;;;;;28.57;11.00;;;;;;;7.90;98.79;99822.75;31206995;28;20057;-76
2022/12/23 18:32:04;;;;;;;27.63;9.83;;;;;;;7.80;99.07;99825.19;31198202;28;20054;-75
2022/12/23 18:47:07;;;;;;;23.50;9.87;;;;;;;7.67;99.64;99799.13;31182641;28;20498;-75
2022/12/23 19:02:12;;;;;;;30.10;12.40;;;;;;;7.23;100.00;99808.13;31229266;28;20566;-74
2022/12/23 19:17:16;;;;;;;24.38;9.43;;;;;;;7.41;100.00;99814.09;31201222;28;20462;-73
2022/12/23 19:32:18;;;;;;;31.57;11.47;;;;;;;7.54;99.91;99812.41;31185898;28;20057;-73
2022/12/23 19:47:20;;;;;;;39.67;13.80;;;;;;;7.49;99.17;99815.53;31216128;28;20084;-74
2022/12/23 20:02:22;;;;;;;29.00;12.23;;;;;;;7.48;98.04;99824.81;31211263;28;20053;-76
2022/12/23 20:17:24;;;;;;;20.03;8.90;;;;;;;7.03;98.70;99835.72;31200471;28;20061;-77
2022/12/23 20:32:26;;;;;;;31.70;11.63;;;;;;;6.94;98.63;99827.28;31202697;28;20057;-75
2022/12/23 20:47:28;;;;;;;30.40;11.73;;;;;;;6.98;100.00;99822.63;31159047;28;20853;-75
2022/12/23 21:02:30;;;;;;;26.33;10.67;;;;;;;7.16;97.54;99830.56;31217436;28;20112;-75
2022/12/23 21:17:32;;;;;;;29.37;11.10;;;;;;;6.48;100.00;99781.84;31207137;28;20065;-75
2022/12/23 21:32:34;;;;;;;28.00;11.80;;;;;;;6.61;100.00;99774.81;31175236;28;20103;-76
2022/12/23 21:47:36;;;;;;;32.00;12.00;;;;;;;6.34;100.00;99782.72;31209127;28;20512;-74
2022/12/23 22:02:38;;;;;;;29.87;13.17;;;;;;;6.39;100.00;99754.56;31165817;28;20046;-75
